Weather at Little's Farm

Public forecast

Using degrees Celsius for public forecast. Weather courtesy of forecast.io.

Closest aviation weather report (METAR) to Little's Farm

Closest report is Lester B. Pearson International Airport, 10.0 nm (18.5 km) SE. Retrieved 2020/10/27 14:00 UTC (2 hours ago):

CYYZ 271400Z 01003KT 350V050 15SM FEW021 BKN028 BKN042 OVC120 06/02 A3025 RMK CU1SC5SC2AC1 CU TR SLP249

Closest aviation forecast (TAF) to Little's Farm

Closest forecast is Lester B. Pearson International Airport, 10.0 nm (18.5 km) SE. Retrieved 2020/10/27 15:46 UTC (0 seconds ago):

TAF CYYZ 271444Z 2715/2818 01005KT P6SM BKN030 OVC100 FM271800 25010KT 4SM -SHRA BR SCT020 OVC030 FM272200 25012KT P6SM SCT020 BKN030 FM280300 24008KT P6SM FEW004 SCT020 PROB30 2806/2813 3/4SM BR FM281500 25010G20KT P6SM BKN020 RMK NXT FCST BY 271800Z